»·PEaware :: N9298L KSLE-KOTH

N9298L :: KSLE-KOTH

FLIGHT INFORMATION

Flight Status: Arrived
Operator: Privately registered:
United States
More flights under this callsign
Pilot: Brendan O. (14500)
Aircraft: PIPER PA-32 SARATOGA
(PA32)
More flights by this aircraft type
Origin: KSLE McNary
United States
Destination: KOTH North Bend Mun
United States
More flights between these airports :: More routes between these airports
Route: +TURNO EUG OTH
File this flight plan on PilotEdge
Remarks: SLE4 Radar Departure
Altitude:
(Current/Filed)
6,000ft
Speed:
(Current/Filed)
145kts
Departed: 11-Nov-17 10:33 AM
Arrived: 11-Nov-17 11:26 AM
Distance/Time
Traveled:
113nm/0:53
Distance/Time
To Go:
Arrived

Flight Plot

Page will automatically refresh every two minutes.

Flight plan parsing failed; only flown route is shown


Map Options




Map Legend


Flown Route
Filed Route
Departure Airport
Arrival Airport
Navaid (VOR, NDB)
Fix

Horizontal Profiles

Position Reports

Time Latitude Longitude Heading Altitude Ground
Speed
11-Nov-17 10:24 44.910803 -123.007387 73 197ft 0kts
11-Nov-17 10:25 44.910803 -123.007387 73 197ft 0kts
11-Nov-17 10:26 44.910803 -123.007387 73 197ft 0kts
11-Nov-17 10:27 44.910803 -123.007387 73 197ft 0kts
11-Nov-17 10:28 44.910803 -123.007387 73 197ft 0kts
11-Nov-17 10:29 44.910804 -123.007384 73 197ft 0kts
11-Nov-17 10:30 44.913479 -123.006295 332 196ft 13kts
11-Nov-17 10:31 44.915414 -123.007805 342 193ft 0kts
11-Nov-17 10:32 44.915730 -123.007679 58 193ft 0kts
11-Nov-17 10:33 44.915730 -123.007679 58 193ft 0kts
11-Nov-17 10:34 44.915730 -123.007679 58 193ft 0kts
11-Nov-17 10:35 44.915730 -123.007679 58 193ft 0kts
11-Nov-17 10:36 44.915731 -123.007678 58 193ft 0kts
11-Nov-17 10:37 44.916019 -123.006735 106 195ft 8kts
11-Nov-17 10:38 44.896749 -122.990924 147 1018ft 98kts
11-Nov-17 10:39 44.872998 -122.970004 154 2330ft 102kts
11-Nov-17 10:40 44.847275 -122.952975 176 3578ft 108kts
11-Nov-17 10:41 44.818889 -122.962568 189 4770ft 107kts
11-Nov-17 10:42 44.790882 -122.971130 190 5956ft 111kts
11-Nov-17 10:43 44.752665 -122.986140 194 5973ft 160kts
11-Nov-17 10:44 44.709913 -123.003144 194 5985ft 165kts
11-Nov-17 10:45 44.665826 -123.019670 193 6007ft 164kts
11-Nov-17 10:46 44.621414 -123.034571 193 5982ft 164kts
11-Nov-17 10:47 44.577241 -123.050513 195 5978ft 163kts
11-Nov-17 10:48 44.533893 -123.069429 194 5975ft 163kts
11-Nov-17 10:49 44.489987 -123.083751 195 6005ft 162kts
11-Nov-17 10:50 44.446896 -123.101615 194 6017ft 162kts
11-Nov-17 10:51 44.402891 -123.116630 191 5881ft 170kts
11-Nov-17 10:52 44.355332 -123.134464 193 5028ft 182kts
11-Nov-17 10:53 44.309055 -123.152452 194 4981ft 168kts
11-Nov-17 10:54 44.264940 -123.172738 195 5012ft 164kts
11-Nov-17 10:55 44.220951 -123.189541 191 5047ft 164kts
11-Nov-17 10:56 44.176301 -123.202604 188 5075ft 165kts
11-Nov-17 10:57 44.132815 -123.217062 194 5021ft 168kts
11-Nov-17 10:58 44.095776 -123.249624 225 5027ft 172kts
11-Nov-17 10:59 44.068975 -123.298492 229 5024ft 173kts
11-Nov-17 11:00 44.038757 -123.343982 219 5009ft 171kts
11-Nov-17 11:01 44.006145 -123.384679 216 5019ft 170kts
11-Nov-17 11:02 43.973098 -123.428953 221 5022ft 171kts
11-Nov-17 11:03 43.945438 -123.467319 221 4543ft 188kts
11-Nov-17 11:04 43.904317 -123.524324 221 4491ft 173kts
11-Nov-17 11:05 43.876993 -123.561157 219 4485ft 173kts
11-Nov-17 11:06 43.835004 -123.612732 218 4507ft 173kts
11-Nov-17 11:07 43.799883 -123.658124 221 4500ft 176kts
11-Nov-17 11:08 43.765650 -123.707152 221 4515ft 178kts
11-Nov-17 11:09 43.736199 -123.746724 218 4564ft 177kts
11-Nov-17 11:10 43.700536 -123.793573 222 4510ft 178kts
11-Nov-17 11:11 43.666362 -123.841445 221 4503ft 173kts
11-Nov-17 11:12 43.631740 -123.886913 219 4442ft 173kts
11-Nov-17 11:13 43.596923 -123.930574 219 4541ft 168kts
11-Nov-17 11:14 43.562844 -123.976202 221 4495ft 171kts
11-Nov-17 11:15 43.528653 -124.021319 219 4544ft 168kts
11-Nov-17 11:16 43.494102 -124.065796 222 4530ft 171kts
11-Nov-17 11:17 43.459555 -124.110165 220 4541ft 170kts
11-Nov-17 11:18 43.425992 -124.156184 222 4550ft 171kts
11-Nov-17 11:19 43.408666 -124.216412 254 3982ft 173kts
11-Nov-17 11:20 43.400642 -124.279662 257 3036ft 159kts
11-Nov-17 11:21 43.386137 -124.333672 237 3048ft 149kts
11-Nov-17 11:22 43.369214 -124.385373 243 2556ft 156kts
11-Nov-17 11:23 43.341538 -124.420000 191 2233ft 134kts
11-Nov-17 11:24 43.306289 -124.433970 215 2060ft 124kts
11-Nov-17 11:25 43.317739 -124.467344 11 1953ft 136kts
11-Nov-17 11:26 43.344659 -124.432463 57 1511ft 138kts
11-Nov-17 11:27 43.361276 -124.390687 66 1301ft 117kts
11-Nov-17 11:28 43.380018 -124.345301 61 1350ft 153kts
11-Nov-17 11:29 43.398536 -124.300397 64 597ft 114kts
11-Nov-17 11:30 43.413211 -124.264500 66 119ft 88kts
11-Nov-17 11:31 43.417959 -124.251369 146 21ft 2kts
11-Nov-17 11:32 43.338152 -124.443731 54 1680ft 138kts

Navigation Log

Ident Type
Flight plan parsing failed, navigation log unavailable